sensor_id;sensor_type;location;lat;lon;timestamp;noise_LAeq;noise_LA_min;noise_LA_max;noise_LA01;noise_LA95
74292;Laerm;62687;55.738;37.516;2023-03-01T00:02:21;65.98;55.70;75.39;;
74292;Laerm;62687;55.738;37.516;2023-03-01T00:05:05;66.16;58.67;74.58;;
74292;Laerm;62687;55.738;37.516;2023-03-01T00:07:54;64.46;53.52;74.97;;
74292;Laerm;62687;55.738;37.516;2023-03-01T00:10:38;65.33;54.63;73.26;;
74292;Laerm;62687;55.738;37.516;2023-03-01T00:13:22;65.22;57.56;75.64;;
74292;Laerm;62687;55.738;37.516;2023-03-01T00:16:09;65.75;52.87;75.49;;
74292;Laerm;62687;55.738;37.516;2023-03-01T00:18:56;64.94;54.68;73.20;;
74292;Laerm;62687;55.738;37.516;2023-03-01T00:21:41;65.89;57.52;75.03;;
74292;Laerm;62687;55.738;37.516;2023-03-01T00:24:26;65.47;53.68;75.43;;
74292;Laerm;62687;55.738;37.516;2023-03-01T00:27:10;65.54;54.52;72.76;;
74292;Laerm;62687;55.738;37.516;2023-03-01T00:29:54;65.14;53.29;73.43;;
74292;Laerm;62687;55.738;37.516;2023-03-01T00:32:39;64.39;55.40;71.91;;
74292;Laerm;62687;55.738;37.516;2023-03-01T00:35:23;63.95;53.79;73.12;;
74292;Laerm;62687;55.738;37.516;2023-03-01T00:38:07;65.56;52.24;75.75;;
74292;Laerm;62687;55.738;37.516;2023-03-01T00:40:52;62.75;53.33;69.89;;
74292;Laerm;62687;55.738;37.516;2023-03-01T00:43:36;65.01;52.41;76.09;;
74292;Laerm;62687;55.738;37.516;2023-03-01T00:46:24;62.68;50.91;72.76;;
74292;Laerm;62687;55.738;37.516;2023-03-01T00:49:08;64.62;53.56;73.71;;
74292;Laerm;62687;55.738;37.516;2023-03-01T00:51:53;62.95;51.22;71.79;;
74292;Laerm;62687;55.738;37.516;2023-03-01T00:54:37;64.48;52.82;76.00;;
74292;Laerm;62687;55.738;37.516;2023-03-01T00:57:21;64.42;55.78;74.75;;
74292;Laerm;62687;55.738;37.516;2023-03-01T01:00:06;65.67;53.27;76.17;;
74292;Laerm;62687;55.738;37.516;2023-03-01T01:02:50;64.36;55.32;73.78;;
74292;Laerm;62687;55.738;37.516;2023-03-01T01:05:34;64.70;56.18;73.99;;
74292;Laerm;62687;55.738;37.516;2023-03-01T01:08:19;63.93;53.70;75.81;;
74292;Laerm;62687;55.738;37.516;2023-03-01T01:11:04;64.88;55.91;71.91;;
74292;Laerm;62687;55.738;37.516;2023-03-01T01:13:49;63.93;53.76;73.12;;
74292;Laerm;62687;55.738;37.516;2023-03-01T01:16:33;66.72;57.32;82.65;;
74292;Laerm;62687;55.738;37.516;2023-03-01T01:19:17;66.61;58.01;76.76;;
74292;Laerm;62687;55.738;37.516;2023-03-01T01:22:01;65.26;56.51;74.99;;
74292;Laerm;62687;55.738;37.516;2023-03-01T01:24:46;68.10;55.36;85.92;;
74292;Laerm;62687;55.738;37.516;2023-03-01T01:27:30;65.02;55.94;75.06;;
74292;Laerm;62687;55.738;37.516;2023-03-01T01:30:14;66.18;56.43;78.48;;
74292;Laerm;62687;55.738;37.516;2023-03-01T01:32:58;66.92;56.13;76.42;;
74292;Laerm;62687;55.738;37.516;2023-03-01T01:35:45;64.99;53.24;71.85;;
74292;Laerm;62687;55.738;37.516;2023-03-01T01:38:29;66.06;55.99;76.09;;
74292;Laerm;62687;55.738;37.516;2023-03-01T01:41:14;66.03;55.21;76.45;;
74292;Laerm;62687;55.738;37.516;2023-03-01T01:47:04;65.65;57.33;82.74;;
74292;Laerm;62687;55.738;37.516;2023-03-01T01:49:54;65.16;57.09;72.61;;
74292;Laerm;62687;55.738;37.516;2023-03-01T01:52:38;66.48;58.52;77.21;;
74292;Laerm;62687;55.738;37.516;2023-03-01T01:55:26;65.21;55.29;74.26;;
74292;Laerm;62687;55.738;37.516;2023-03-01T01:58:14;66.13;59.38;73.73;;
74292;Laerm;62687;55.738;37.516;2023-03-01T02:00:59;64.92;54.37;71.53;;
74292;Laerm;62687;55.738;37.516;2023-03-01T02:03:46;65.52;55.58;78.60;;
74292;Laerm;62687;55.738;37.516;2023-03-01T02:06:37;67.71;60.54;76.86;;
74292;Laerm;62687;55.738;37.516;2023-03-01T02:09:23;67.14;56.26;87.27;;
74292;Laerm;62687;55.738;37.516;2023-03-01T02:12:07;66.45;56.54;75.02;;
74292;Laerm;62687;55.738;37.516;2023-03-01T02:14:52;66.69;57.44;76.82;;
74292;Laerm;62687;55.738;37.516;2023-03-01T02:17:36;67.17;60.69;74.17;;
74292;Laerm;62687;55.738;37.516;2023-03-01T02:20:27;67.07;58.90;76.23;;
74292;Laerm;62687;55.738;37.516;2023-03-01T02:23:15;68.60;56.96;76.93;;
74292;Laerm;62687;55.738;37.516;2023-03-01T02:26:37;67.27;58.27;74.32;;
74292;Laerm;62687;55.738;37.516;2023-03-01T02:29:12;67.28;59.81;76.85;;
74292;Laerm;62687;55.738;37.516;2023-03-01T02:31:58;66.67;59.62;74.42;;
74292;Laerm;62687;55.738;37.516;2023-03-01T02:34:44;68.05;58.04;75.52;;
74292;Laerm;62687;55.738;37.516;2023-03-01T02:37:28;68.72;60.70;77.93;;
74292;Laerm;62687;55.738;37.516;2023-03-01T02:40:17;68.36;59.52;85.93;;
74292;Laerm;62687;55.738;37.516;2023-03-01T02:43:04;68.01;61.87;76.35;;
74292;Laerm;62687;55.738;37.516;2023-03-01T02:45:54;68.59;62.09;76.59;;
74292;Laerm;62687;55.738;37.516;2023-03-01T02:48:47;68.31;61.33;75.79;;
74292;Laerm;62687;55.738;37.516;2023-03-01T02:54:48;69.09;61.30;78.87;;
74292;Laerm;62687;55.738;37.516;2023-03-01T02:57:37;68.92;62.06;74.41;;
74292;Laerm;62687;55.738;37.516;2023-03-01T03:00:26;68.85;62.47;76.83;;
74292;Laerm;62687;55.738;37.516;2023-03-01T03:03:17;69.45;62.91;78.58;;
74292;Laerm;62687;55.738;37.516;2023-03-01T03:05:48;69.61;63.59;75.15;;
74292;Laerm;62687;55.738;37.516;2023-03-01T03:08:32;69.89;63.07;74.36;;
74292;Laerm;62687;55.738;37.516;2023-03-01T03:11:16;68.98;63.34;75.51;;
74292;Laerm;62687;55.738;37.516;2023-03-01T03:14:00;70.18;64.82;82.84;;
74292;Laerm;62687;55.738;37.516;2023-03-01T03:16:49;70.33;63.71;76.33;;
74292;Laerm;62687;55.738;37.516;2023-03-01T03:19:34;70.30;64.08;79.20;;
74292;Laerm;62687;55.738;37.516;2023-03-01T03:22:18;70.60;65.12;76.50;;
74292;Laerm;62687;55.738;37.516;2023-03-01T03:25:02;71.19;63.58;76.52;;
74292;Laerm;62687;55.738;37.516;2023-03-01T03:27:48;70.55;64.22;75.47;;
74292;Laerm;62687;55.738;37.516;2023-03-01T03:30:33;70.51;63.99;74.32;;
74292;Laerm;62687;55.738;37.516;2023-03-01T03:33:17;70.75;65.77;75.14;;
74292;Laerm;62687;55.738;37.516;2023-03-01T03:36:01;71.60;64.66;78.30;;
74292;Laerm;62687;55.738;37.516;2023-03-01T03:38:45;70.68;64.07;76.06;;
74292;Laerm;62687;55.738;37.516;2023-03-01T03:41:30;71.40;66.86;76.04;;
74292;Laerm;62687;55.738;37.516;2023-03-01T03:44:14;71.68;66.27;78.59;;
74292;Laerm;62687;55.738;37.516;2023-03-01T03:46:58;71.53;66.55;75.86;;
74292;Laerm;62687;55.738;37.516;2023-03-01T03:49:42;71.49;66.74;77.54;;
74292;Laerm;62687;55.738;37.516;2023-03-01T03:52:26;71.99;66.60;79.27;;
74292;Laerm;62687;55.738;37.516;2023-03-01T03:55:11;72.14;67.31;77.15;;
74292;Laerm;62687;55.738;37.516;2023-03-01T03:58:00;72.14;67.37;78.53;;
74292;Laerm;62687;55.738;37.516;2023-03-01T04:00:52;71.77;66.60;75.93;;
74292;Laerm;62687;55.738;37.516;2023-03-01T04:03:37;72.81;67.80;77.80;;
74292;Laerm;62687;55.738;37.516;2023-03-01T04:06:22;72.61;68.06;80.71;;
74292;Laerm;62687;55.738;37.516;2023-03-01T04:09:06;72.71;67.78;76.79;;
74292;Laerm;62687;55.738;37.516;2023-03-01T04:11:50;72.68;66.40;81.45;;
74292;Laerm;62687;55.738;37.516;2023-03-01T04:14:34;72.55;68.45;81.42;;
74292;Laerm;62687;55.738;37.516;2023-03-01T04:17:18;73.00;68.36;80.26;;
74292;Laerm;62687;55.738;37.516;2023-03-01T04:20:03;73.00;68.29;77.76;;
74292;Laerm;62687;55.738;37.516;2023-03-01T04:22:49;73.09;67.89;77.76;;
74292;Laerm;62687;55.738;37.516;2023-03-01T04:25:33;72.82;67.55;77.33;;
74292;Laerm;62687;55.738;37.516;2023-03-01T04:28:17;73.16;68.45;78.15;;
74292;Laerm;62687;55.738;37.516;2023-03-01T04:31:07;73.21;69.50;77.56;;
74292;Laerm;62687;55.738;37.516;2023-03-01T04:33:58;72.95;67.77;76.72;;
74292;Laerm;62687;55.738;37.516;2023-03-01T04:36:42;72.88;69.01;76.81;;
74292;Laerm;62687;55.738;37.516;2023-03-01T04:39:26;73.35;68.65;80.99;;
74292;Laerm;62687;55.738;37.516;2023-03-01T04:42:10;73.14;68.59;77.42;;
74292;Laerm;62687;55.738;37.516;2023-03-01T04:44:54;73.25;68.01;77.17;;
74292;Laerm;62687;55.738;37.516;2023-03-01T04:47:43;73.18;68.83;76.86;;
74292;Laerm;62687;55.738;37.516;2023-03-01T04:50:28;73.05;68.99;81.90;;
74292;Laerm;62687;55.738;37.516;2023-03-01T04:53:13;73.52;69.77;80.99;;
74292;Laerm;62687;55.738;37.516;2023-03-01T04:55:57;74.07;70.10;85.29;;
74292;Laerm;62687;55.738;37.516;2023-03-01T04:58:41;73.25;69.10;80.18;;
74292;Laerm;62687;55.738;37.516;2023-03-01T05:01:26;73.88;69.17;83.79;;
74292;Laerm;62687;55.738;37.516;2023-03-01T05:04:10;72.98;68.86;78.15;;
74292;Laerm;62687;55.738;37.516;2023-03-01T05:06:56;73.62;69.40;87.05;;
74292;Laerm;62687;55.738;37.516;2023-03-01T05:09:42;73.97;69.67;86.77;;
74292;Laerm;62687;55.738;37.516;2023-03-01T05:12:26;73.05;69.27;77.50;;
74292;Laerm;62687;55.738;37.516;2023-03-01T05:15:10;73.20;68.77;86.39;;
74292;Laerm;62687;55.738;37.516;2023-03-01T05:17:56;72.79;68.61;83.46;;
74292;Laerm;62687;55.738;37.516;2023-03-01T05:20:42;72.82;68.45;77.12;;
74292;Laerm;62687;55.738;37.516;2023-03-01T05:23:26;72.67;69.20;76.74;;
74292;Laerm;62687;55.738;37.516;2023-03-01T05:26:10;72.47;68.27;77.06;;
74292;Laerm;62687;55.738;37.516;2023-03-01T05:28:56;72.30;68.59;77.30;;
74292;Laerm;62687;55.738;37.516;2023-03-01T05:31:42;74.09;69.37;84.05;;
74292;Laerm;62687;55.738;37.516;2023-03-01T05:34:34;72.60;69.12;77.46;;
74292;Laerm;62687;55.738;37.516;2023-03-01T05:37:19;73.18;68.64;81.06;;
74292;Laerm;62687;55.738;37.516;2023-03-01T05:40:03;73.05;69.22;80.85;;
74292;Laerm;62687;55.738;37.516;2023-03-01T05:42:56;73.03;69.11;78.62;;
74292;Laerm;62687;55.738;37.516;2023-03-01T05:45:40;73.18;68.78;81.48;;
74292;Laerm;62687;55.738;37.516;2023-03-01T05:48:25;73.21;69.29;79.83;;
74292;Laerm;62687;55.738;37.516;2023-03-01T05:51:09;73.27;69.11;83.52;;
74292;Laerm;62687;55.738;37.516;2023-03-01T05:53:53;72.81;68.34;77.68;;
74292;Laerm;62687;55.738;37.516;2023-03-01T05:56:37;73.45;68.88;86.00;;
74292;Laerm;62687;55.738;37.516;2023-03-01T05:59:21;72.88;67.94;78.08;;
74292;Laerm;62687;55.738;37.516;2023-03-01T06:02:05;73.06;67.89;86.25;;
74292;Laerm;62687;55.738;37.516;2023-03-01T06:04:49;72.87;69.46;76.94;;
74292;Laerm;62687;55.738;37.516;2023-03-01T06:07:33;74.85;69.39;90.18;;
74292;Laerm;62687;55.738;37.516;2023-03-01T06:10:19;73.01;68.31;79.10;;
74292;Laerm;62687;55.738;37.516;2023-03-01T06:13:03;72.81;68.02;76.63;;
74292;Laerm;62687;55.738;37.516;2023-03-01T06:15:48;73.47;69.32;77.71;;
74292;Laerm;62687;55.738;37.516;2023-03-01T06:18:32;72.89;68.17;78.67;;
74292;Laerm;62687;55.738;37.516;2023-03-01T06:21:16;72.69;68.27;76.40;;
74292;Laerm;62687;55.738;37.516;2023-03-01T06:24:00;73.18;69.14;82.54;;
74292;Laerm;62687;55.738;37.516;2023-03-01T06:26:44;73.88;68.90;86.71;;
74292;Laerm;62687;55.738;37.516;2023-03-01T06:29:28;72.85;67.66;81.13;;
74292;Laerm;62687;55.738;37.516;2023-03-01T06:32:12;72.75;67.65;76.52;;
74292;Laerm;62687;55.738;37.516;2023-03-01T06:34:56;72.43;67.23;76.56;;
74292;Laerm;62687;55.738;37.516;2023-03-01T06:37:42;72.69;67.89;78.04;;
74292;Laerm;62687;55.738;37.516;2023-03-01T06:40:27;72.79;69.20;85.24;;
74292;Laerm;62687;55.738;37.516;2023-03-01T06:43:11;72.67;68.22;79.76;;
74292;Laerm;62687;55.738;37.516;2023-03-01T06:45:56;73.11;68.79;80.92;;
74292;Laerm;62687;55.738;37.516;2023-03-01T06:48:40;72.17;67.71;76.96;;
74292;Laerm;62687;55.738;37.516;2023-03-01T06:51:25;72.91;67.50;86.30;;
74292;Laerm;62687;55.738;37.516;2023-03-01T06:54:10;72.42;66.95;83.19;;
74292;Laerm;62687;55.738;37.516;2023-03-01T06:56:54;72.85;68.32;81.70;;
74292;Laerm;62687;55.738;37.516;2023-03-01T06:59:38;72.61;68.77;86.88;;
74292;Laerm;62687;55.738;37.516;2023-03-01T07:02:23;72.36;68.05;81.15;;
74292;Laerm;62687;55.738;37.516;2023-03-01T07:05:07;72.38;67.18;78.59;;
74292;Laerm;62687;55.738;37.516;2023-03-01T07:07:53;73.06;67.30;84.92;;
74292;Laerm;62687;55.738;37.516;2023-03-01T07:10:37;71.87;67.18;83.76;;
74292;Laerm;62687;55.738;37.516;2023-03-01T07:13:21;72.68;68.11;80.02;;
74292;Laerm;62687;55.738;37.516;2023-03-01T07:16:05;73.51;68.36;85.96;;
74292;Laerm;62687;55.738;37.516;2023-03-01T07:18:50;73.01;68.89;84.60;;
74292;Laerm;62687;55.738;37.516;2023-03-01T07:21:34;72.23;67.11;79.93;;
74292;Laerm;62687;55.738;37.516;2023-03-01T07:24:17;73.14;69.46;83.02;;
74292;Laerm;62687;55.738;37.516;2023-03-01T07:27:02;72.36;67.07;83.10;;
74292;Laerm;62687;55.738;37.516;2023-03-01T07:29:46;75.97;68.20;98.99;;
74292;Laerm;62687;55.738;37.516;2023-03-01T07:32:30;73.05;69.09;85.25;;
74292;Laerm;62687;55.738;37.516;2023-03-01T07:35:14;75.19;67.86;98.60;;
74292;Laerm;62687;55.738;37.516;2023-03-01T07:37:58;76.29;68.42;98.32;;
74292;Laerm;62687;55.738;37.516;2023-03-01T07:40:42;76.93;68.73;91.74;;
74292;Laerm;62687;55.738;37.516;2023-03-01T07:43:27;78.55;68.71;92.79;;
74292;Laerm;62687;55.738;37.516;2023-03-01T07:46:12;76.63;68.54;92.59;;
74292;Laerm;62687;55.738;37.516;2023-03-01T07:48:55;82.89;68.94;97.96;;
74292;Laerm;62687;55.738;37.516;2023-03-01T07:51:43;78.79;68.34;93.62;;
74292;Laerm;62687;55.738;37.516;2023-03-01T07:54:27;72.02;67.89;76.70;;
74292;Laerm;62687;55.738;37.516;2023-03-01T07:57:11;72.50;68.16;79.60;;
74292;Laerm;62687;55.738;37.516;2023-03-01T07:59:56;72.88;67.82;90.86;;
74292;Laerm;62687;55.738;37.516;2023-03-01T08:02:40;71.82;67.88;81.86;;
74292;Laerm;62687;55.738;37.516;2023-03-01T08:05:25;72.14;67.89;76.25;;
74292;Laerm;62687;55.738;37.516;2023-03-01T08:08:09;72.29;67.99;76.14;;
74292;Laerm;62687;55.738;37.516;2023-03-01T08:10:56;73.22;68.33;90.04;;
74292;Laerm;62687;55.738;37.516;2023-03-01T08:13:41;73.13;69.61;77.06;;
74292;Laerm;62687;55.738;37.516;2023-03-01T08:16:25;72.92;68.96;77.89;;
74292;Laerm;62687;55.738;37.516;2023-03-01T08:19:11;73.67;69.09;87.09;;
74292;Laerm;62687;55.738;37.516;2023-03-01T08:21:55;73.99;69.66;84.05;;
74292;Laerm;62687;55.738;37.516;2023-03-01T08:24:41;73.60;69.33;87.52;;
74292;Laerm;62687;55.738;37.516;2023-03-01T08:27:25;73.08;69.00;81.35;;
74292;Laerm;62687;55.738;37.516;2023-03-01T08:30:10;73.32;67.83;82.37;;
74292;Laerm;62687;55.738;37.516;2023-03-01T08:32:54;73.65;68.81;85.62;;
74292;Laerm;62687;55.738;37.516;2023-03-01T08:35:38;73.22;69.46;79.84;;
74292;Laerm;62687;55.738;37.516;2023-03-01T08:38:22;73.36;69.20;80.63;;
74292;Laerm;62687;55.738;37.516;2023-03-01T08:41:06;73.40;70.12;81.35;;
74292;Laerm;62687;55.738;37.516;2023-03-01T08:43:51;73.51;69.06;84.01;;
74292;Laerm;62687;55.738;37.516;2023-03-01T08:46:38;73.23;68.54;90.77;;
74292;Laerm;62687;55.738;37.516;2023-03-01T08:49:24;74.93;69.77;89.99;;
74292;Laerm;62687;55.738;37.516;2023-03-01T08:52:08;73.10;68.86;80.04;;
74292;Laerm;62687;55.738;37.516;2023-03-01T08:54:52;73.20;69.26;79.29;;
74292;Laerm;62687;55.738;37.516;2023-03-01T08:57:36;72.75;67.95;77.37;;
74292;Laerm;62687;55.738;37.516;2023-03-01T09:00:21;72.63;67.49;83.48;;
74292;Laerm;62687;55.738;37.516;2023-03-01T09:03:05;74.32;68.83;87.48;;
74292;Laerm;62687;55.738;37.516;2023-03-01T09:05:50;73.24;68.78;81.46;;
74292;Laerm;62687;55.738;37.516;2023-03-01T09:08:35;72.67;68.96;77.86;;
74292;Laerm;62687;55.738;37.516;2023-03-01T09:11:21;75.00;67.81;91.34;;
74292;Laerm;62687;55.738;37.516;2023-03-01T09:14:06;72.55;68.20;86.58;;
74292;Laerm;62687;55.738;37.516;2023-03-01T09:16:50;73.03;67.39;91.64;;
74292;Laerm;62687;55.738;37.516;2023-03-01T09:19:35;73.87;68.18;81.02;;
74292;Laerm;62687;55.738;37.516;2023-03-01T09:22:19;72.76;68.20;88.16;;
74292;Laerm;62687;55.738;37.516;2023-03-01T09:25:03;72.71;68.40;87.84;;
74292;Laerm;62687;55.738;37.516;2023-03-01T09:27:50;72.27;68.33;87.76;;
74292;Laerm;62687;55.738;37.516;2023-03-01T09:30:34;72.61;68.18;86.02;;
74292;Laerm;62687;55.738;37.516;2023-03-01T09:33:18;73.00;69.20;84.37;;
74292;Laerm;62687;55.738;37.516;2023-03-01T09:36:04;74.52;70.26;87.97;;
74292;Laerm;62687;55.738;37.516;2023-03-01T09:38:49;72.68;67.99;81.22;;
74292;Laerm;62687;55.738;37.516;2023-03-01T09:41:43;73.54;68.15;91.66;;
74292;Laerm;62687;55.738;37.516;2023-03-01T09:44:46;73.37;69.50;84.22;;
74292;Laerm;62687;55.738;37.516;2023-03-01T09:47:34;72.98;68.87;85.43;;
74292;Laerm;62687;55.738;37.516;2023-03-01T09:50:20;72.99;68.57;80.49;;
74292;Laerm;62687;55.738;37.516;2023-03-01T09:53:15;73.02;68.88;84.38;;
74292;Laerm;62687;55.738;37.516;2023-03-01T09:56:12;73.04;68.52;81.04;;
74292;Laerm;62687;55.738;37.516;2023-03-01T10:02:29;73.40;68.74;84.25;;
74292;Laerm;62687;55.738;37.516;2023-03-01T10:11:23;73.21;68.09;79.13;;
74292;Laerm;62687;55.738;37.516;2023-03-01T10:14:35;73.25;67.68;79.86;;
74292;Laerm;62687;55.738;37.516;2023-03-01T10:17:33;73.86;67.84;86.18;;
74292;Laerm;62687;55.738;37.516;2023-03-01T10:20:25;73.43;69.39;82.99;;
74292;Laerm;62687;55.738;37.516;2023-03-01T10:23:09;73.47;68.69;85.80;;
74292;Laerm;62687;55.738;37.516;2023-03-01T10:25:57;72.61;67.86;81.14;;
74292;Laerm;62687;55.738;37.516;2023-03-01T10:29:11;73.48;69.72;82.93;;
74292;Laerm;62687;55.738;37.516;2023-03-01T10:31:56;73.00;68.34;79.73;;
74292;Laerm;62687;55.738;37.516;2023-03-01T10:34:40;72.86;69.22;80.09;;
74292;Laerm;62687;55.738;37.516;2023-03-01T10:37:24;73.08;68.53;83.66;;
74292;Laerm;62687;55.738;37.516;2023-03-01T10:40:10;73.50;69.05;81.17;;
74292;Laerm;62687;55.738;37.516;2023-03-01T10:42:58;73.32;68.79;81.68;;
74292;Laerm;62687;55.738;37.516;2023-03-01T10:45:43;73.29;69.16;77.88;;
74292;Laerm;62687;55.738;37.516;2023-03-01T10:48:27;73.37;67.72;86.31;;
74292;Laerm;62687;55.738;37.516;2023-03-01T10:51:17;73.01;68.54;78.95;;
74292;Laerm;62687;55.738;37.516;2023-03-01T10:54:04;73.14;69.29;77.39;;
74292;Laerm;62687;55.738;37.516;2023-03-01T10:57:02;73.08;69.21;79.38;;
74292;Laerm;62687;55.738;37.516;2023-03-01T11:00:01;73.49;68.99;78.24;;
74292;Laerm;62687;55.738;37.516;2023-03-01T11:03:11;73.21;68.14;79.24;;
74292;Laerm;62687;55.738;37.516;2023-03-01T11:08:55;73.42;69.66;85.04;;
74292;Laerm;62687;55.738;37.516;2023-03-01T11:11:41;73.30;69.22;84.63;;
74292;Laerm;62687;55.738;37.516;2023-03-01T11:14:33;73.35;69.24;81.63;;
74292;Laerm;62687;55.738;37.516;2023-03-01T11:17:31;73.84;70.01;85.44;;
74292;Laerm;62687;55.738;37.516;2023-03-01T11:20:24;73.49;69.37;81.24;;
74292;Laerm;62687;55.738;37.516;2023-03-01T11:23:12;73.56;69.74;77.81;;
74292;Laerm;62687;55.738;37.516;2023-03-01T11:26:07;74.12;70.33;85.76;;
74292;Laerm;62687;55.738;37.516;2023-03-01T11:28:55;73.72;69.41;89.93;;
74292;Laerm;62687;55.738;37.516;2023-03-01T11:31:42;73.04;68.79;78.16;;
74292;Laerm;62687;55.738;37.516;2023-03-01T11:34:39;74.03;69.65;88.79;;
74292;Laerm;62687;55.738;37.516;2023-03-01T11:40:45;72.81;68.65;80.65;;
74292;Laerm;62687;55.738;37.516;2023-03-01T11:52:28;71.90;66.68;89.30;;
74292;Laerm;62687;55.738;37.516;2023-03-01T12:01:25;71.03;65.99;79.61;;
74292;Laerm;62687;55.738;37.516;2023-03-01T12:07:50;71.10;67.59;76.04;;
74292;Laerm;62687;55.738;37.516;2023-03-01T12:20:08;71.61;67.42;87.72;;
74292;Laerm;62687;55.738;37.516;2023-03-01T12:35:11;71.13;65.90;84.85;;
74292;Laerm;62687;55.738;37.516;2023-03-01T12:47:30;72.73;68.26;77.09;;
74292;Laerm;62687;55.738;37.516;2023-03-01T12:50:41;73.30;68.23;85.28;;
74292;Laerm;62687;55.738;37.516;2023-03-01T12:53:30;72.78;67.77;78.61;;
74292;Laerm;62687;55.738;37.516;2023-03-01T12:56:19;72.64;68.44;77.34;;
74292;Laerm;62687;55.738;37.516;2023-03-01T13:02:32;72.10;67.66;81.09;;
74292;Laerm;62687;55.738;37.516;2023-03-01T13:08:08;71.93;65.96;85.00;;
74292;Laerm;62687;55.738;37.516;2023-03-01T13:11:01;70.94;66.12;84.68;;
74292;Laerm;62687;55.738;37.516;2023-03-01T13:13:46;70.61;65.64;87.30;;
74292;Laerm;62687;55.738;37.516;2023-03-01T13:16:41;70.12;65.12;78.64;;
74292;Laerm;62687;55.738;37.516;2023-03-01T13:19:29;71.82;65.88;90.39;;
74292;Laerm;62687;55.738;37.516;2023-03-01T13:22:27;70.87;66.64;81.61;;
74292;Laerm;62687;55.738;37.516;2023-03-01T13:25:18;71.06;65.98;89.79;;
74292;Laerm;62687;55.738;37.516;2023-03-01T13:34:01;70.95;67.04;78.36;;
74292;Laerm;62687;55.738;37.516;2023-03-01T13:36:53;72.07;66.32;95.41;;
74292;Laerm;62687;55.738;37.516;2023-03-01T13:40:01;71.38;66.47;87.98;;
74292;Laerm;62687;55.738;37.516;2023-03-01T13:46:23;71.16;65.66;83.02;;
74292;Laerm;62687;55.738;37.516;2023-03-01T13:56:08;70.74;65.77;85.01;;
74292;Laerm;62687;55.738;37.516;2023-03-01T14:02:24;71.26;66.73;85.52;;
74292;Laerm;62687;55.738;37.516;2023-03-01T14:05:23;70.77;67.50;77.44;;
74292;Laerm;62687;55.738;37.516;2023-03-01T14:15:41;71.31;66.13;80.60;;
74292;Laerm;62687;55.738;37.516;2023-03-01T14:19:08;70.48;65.66;79.95;;
74292;Laerm;62687;55.738;37.516;2023-03-01T14:22:29;71.22;65.91;82.82;;
74292;Laerm;62687;55.738;37.516;2023-03-01T14:25:24;71.20;67.13;74.90;;
74292;Laerm;62687;55.738;37.516;2023-03-01T14:28:31;71.05;66.77;78.26;;
74292;Laerm;62687;55.738;37.516;2023-03-01T14:31:38;71.02;66.71;77.58;;
74292;Laerm;62687;55.738;37.516;2023-03-01T14:34:32;70.36;65.66;82.48;;
74292;Laerm;62687;55.738;37.516;2023-03-01T14:37:27;71.01;66.89;82.31;;
74292;Laerm;62687;55.738;37.516;2023-03-01T14:40:22;71.03;66.46;86.31;;
74292;Laerm;62687;55.738;37.516;2023-03-01T14:43:12;71.32;66.21;82.40;;
74292;Laerm;62687;55.738;37.516;2023-03-01T14:46:02;71.10;66.88;82.42;;
74292;Laerm;62687;55.738;37.516;2023-03-01T14:48:50;70.36;66.16;78.73;;
74292;Laerm;62687;55.738;37.516;2023-03-01T14:51:40;71.15;67.02;82.99;;
74292;Laerm;62687;55.738;37.516;2023-03-01T14:54:29;71.09;66.17;80.46;;
74292;Laerm;62687;55.738;37.516;2023-03-01T14:57:21;70.80;66.90;75.29;;
74292;Laerm;62687;55.738;37.516;2023-03-01T15:00:06;70.52;65.04;77.59;;
74292;Laerm;62687;55.738;37.516;2023-03-01T15:02:53;70.47;65.19;77.28;;
74292;Laerm;62687;55.738;37.516;2023-03-01T15:05:39;70.81;67.11;77.52;;
74292;Laerm;62687;55.738;37.516;2023-03-01T15:08:25;71.53;66.13;81.42;;
74292;Laerm;62687;55.738;37.516;2023-03-01T15:11:23;70.59;66.12;78.48;;
74292;Laerm;62687;55.738;37.516;2023-03-01T15:14:40;69.92;65.73;76.01;;
74292;Laerm;62687;55.738;37.516;2023-03-01T15:17:33;70.52;66.03;79.51;;
74292;Laerm;62687;55.738;37.516;2023-03-01T15:20:19;69.55;65.71;78.30;;
74292;Laerm;62687;55.738;37.516;2023-03-01T15:23:25;69.97;65.70;80.48;;
74292;Laerm;62687;55.738;37.516;2023-03-01T15:26:30;70.61;65.60;81.74;;
74292;Laerm;62687;55.738;37.516;2023-03-01T15:29:20;69.97;65.09;83.94;;
74292;Laerm;62687;55.738;37.516;2023-03-01T15:35:33;71.67;67.31;86.46;;
74292;Laerm;62687;55.738;37.516;2023-03-01T15:38:52;70.76;65.59;79.01;;
74292;Laerm;62687;55.738;37.516;2023-03-01T15:41:48;70.89;65.92;86.69;;
74292;Laerm;62687;55.738;37.516;2023-03-01T15:44:35;71.28;67.28;76.82;;
74292;Laerm;62687;55.738;37.516;2023-03-01T15:47:26;71.76;68.02;78.19;;
74292;Laerm;62687;55.738;37.516;2023-03-01T15:50:18;71.12;66.07;86.16;;
74292;Laerm;62687;55.738;37.516;2023-03-01T15:53:10;70.51;66.53;77.77;;
74292;Laerm;62687;55.738;37.516;2023-03-01T15:55:55;72.25;66.42;90.16;;
74292;Laerm;62687;55.738;37.516;2023-03-01T15:58:39;71.28;66.76;85.42;;
74292;Laerm;62687;55.738;37.516;2023-03-01T16:01:23;71.18;66.53;78.85;;
74292;Laerm;62687;55.738;37.516;2023-03-01T16:04:09;72.11;67.14;85.31;;
74292;Laerm;62687;55.738;37.516;2023-03-01T16:06:54;71.44;66.98;78.23;;
74292;Laerm;62687;55.738;37.516;2023-03-01T16:09:39;71.75;67.09;90.87;;
74292;Laerm;62687;55.738;37.516;2023-03-01T16:12:23;71.22;66.23;80.26;;
74292;Laerm;62687;55.738;37.516;2023-03-01T16:15:15;71.12;67.55;77.89;;
74292;Laerm;62687;55.738;37.516;2023-03-01T16:18:00;70.98;66.06;84.10;;
74292;Laerm;62687;55.738;37.516;2023-03-01T16:20:44;71.43;67.04;85.18;;
74292;Laerm;62687;55.738;37.516;2023-03-01T16:23:28;71.16;66.79;77.72;;
74292;Laerm;62687;55.738;37.516;2023-03-01T16:26:12;71.49;67.42;85.40;;
74292;Laerm;62687;55.738;37.516;2023-03-01T16:28:57;71.48;68.05;79.19;;
74292;Laerm;62687;55.738;37.516;2023-03-01T16:31:42;71.12;67.39;79.61;;
74292;Laerm;62687;55.738;37.516;2023-03-01T16:34:26;71.53;67.77;82.36;;
74292;Laerm;62687;55.738;37.516;2023-03-01T16:37:09;71.03;67.82;75.81;;
74292;Laerm;62687;55.738;37.516;2023-03-01T16:39:53;71.72;67.50;88.51;;
74292;Laerm;62687;55.738;37.516;2023-03-01T16:42:38;70.81;66.94;75.45;;
74292;Laerm;62687;55.738;37.516;2023-03-01T16:45:22;70.87;66.78;82.74;;
74292;Laerm;62687;55.738;37.516;2023-03-01T16:48:06;72.41;67.19;92.12;;
74292;Laerm;62687;55.738;37.516;2023-03-01T16:51:00;71.53;67.18;82.01;;
74292;Laerm;62687;55.738;37.516;2023-03-01T16:53:44;71.61;67.84;81.48;;
74292;Laerm;62687;55.738;37.516;2023-03-01T16:56:29;72.01;68.18;84.27;;
74292;Laerm;62687;55.738;37.516;2023-03-01T16:59:15;72.40;68.08;81.63;;
74292;Laerm;62687;55.738;37.516;2023-03-01T17:01:59;71.81;67.18;76.71;;
74292;Laerm;62687;55.738;37.516;2023-03-01T17:04:44;72.58;68.62;76.95;;
74292;Laerm;62687;55.738;37.516;2023-03-01T17:07:29;72.59;68.35;79.36;;
74292;Laerm;62687;55.738;37.516;2023-03-01T17:10:17;72.37;68.64;76.44;;
74292;Laerm;62687;55.738;37.516;2023-03-01T17:13:01;72.99;69.16;80.46;;